sensor_id;sensor_type;location;lat;lon;timestamp;P1;durP1;ratioP1;P2;durP2;ratioP2
28756;SDS011;44294;48.282;14.282;2022-08-19T00:00:43;5.03;;;2.90;;
28756;SDS011;44294;48.282;14.282;2022-08-19T00:03:30;4.67;;;3.10;;
28756;SDS011;44294;48.282;14.282;2022-08-19T00:06:18;4.63;;;2.80;;
28756;SDS011;44294;48.282;14.282;2022-08-19T00:09:06;9.77;;;2.87;;
28756;SDS011;44294;48.282;14.282;2022-08-19T00:11:54;8.77;;;3.10;;
28756;SDS011;44294;48.282;14.282;2022-08-19T00:14:42;7.60;;;2.97;;
28756;SDS011;44294;48.282;14.282;2022-08-19T00:17:30;6.23;;;3.07;;
28756;SDS011;44294;48.282;14.282;2022-08-19T00:20:18;8.10;;;3.20;;
28756;SDS011;44294;48.282;14.282;2022-08-19T00:23:06;7.47;;;3.00;;
28756;SDS011;44294;48.282;14.282;2022-08-19T00:25:53;6.57;;;2.93;;
28756;SDS011;44294;48.282;14.282;2022-08-19T00:28:41;6.43;;;2.97;;
28756;SDS011;44294;48.282;14.282;2022-08-19T00:31:28;9.80;;;3.30;;
28756;SDS011;44294;48.282;14.282;2022-08-19T00:34:17;4.97;;;2.80;;
28756;SDS011;44294;48.282;14.282;2022-08-19T00:37:04;6.83;;;3.13;;
28756;SDS011;44294;48.282;14.282;2022-08-19T00:39:52;5.20;;;2.90;;
28756;SDS011;44294;48.282;14.282;2022-08-19T00:42:40;5.67;;;3.07;;
28756;SDS011;44294;48.282;14.282;2022-08-19T00:45:27;5.57;;;3.00;;
28756;SDS011;44294;48.282;14.282;2022-08-19T00:48:17;5.10;;;3.00;;
28756;SDS011;44294;48.282;14.282;2022-08-19T00:51:05;5.17;;;3.00;;
28756;SDS011;44294;48.282;14.282;2022-08-19T00:53:53;5.77;;;3.10;;
28756;SDS011;44294;48.282;14.282;2022-08-19T00:56:42;6.80;;;3.20;;
28756;SDS011;44294;48.282;14.282;2022-08-19T00:59:30;5.33;;;2.73;;
28756;SDS011;44294;48.282;14.282;2022-08-19T01:02:17;5.73;;;3.03;;
28756;SDS011;44294;48.282;14.282;2022-08-19T01:05:06;6.30;;;3.03;;
28756;SDS011;44294;48.282;14.282;2022-08-19T01:07:54;7.07;;;2.90;;
28756;SDS011;44294;48.282;14.282;2022-08-19T01:10:43;6.80;;;2.90;;
28756;SDS011;44294;48.282;14.282;2022-08-19T01:13:32;5.77;;;3.23;;
28756;SDS011;44294;48.282;14.282;2022-08-19T01:16:22;5.90;;;2.83;;
28756;SDS011;44294;48.282;14.282;2022-08-19T01:22:12;6.50;;;3.10;;
28756;SDS011;44294;48.282;14.282;2022-08-19T01:25:00;5.57;;;3.03;;
28756;SDS011;44294;48.282;14.282;2022-08-19T01:27:48;4.90;;;2.97;;
28756;SDS011;44294;48.282;14.282;2022-08-19T01:30:36;5.77;;;2.90;;
28756;SDS011;44294;48.282;14.282;2022-08-19T01:33:24;7.17;;;3.00;;
28756;SDS011;44294;48.282;14.282;2022-08-19T01:36:13;5.37;;;2.77;;
28756;SDS011;44294;48.282;14.282;2022-08-19T01:39:01;5.37;;;2.70;;
28756;SDS011;44294;48.282;14.282;2022-08-19T01:41:49;7.87;;;3.30;;
28756;SDS011;44294;48.282;14.282;2022-08-19T01:44:38;7.00;;;2.93;;
28756;SDS011;44294;48.282;14.282;2022-08-19T01:47:27;8.60;;;3.20;;
28756;SDS011;44294;48.282;14.282;2022-08-19T01:50:14;7.33;;;2.93;;
28756;SDS011;44294;48.282;14.282;2022-08-19T01:53:03;5.83;;;2.73;;
28756;SDS011;44294;48.282;14.282;2022-08-19T01:55:50;5.23;;;3.00;;
28756;SDS011;44294;48.282;14.282;2022-08-19T01:58:39;5.77;;;3.07;;
28756;SDS011;44294;48.282;14.282;2022-08-19T02:01:27;5.57;;;3.37;;
28756;SDS011;44294;48.282;14.282;2022-08-19T02:04:16;5.20;;;3.10;;
28756;SDS011;44294;48.282;14.282;2022-08-19T02:07:04;5.77;;;3.03;;
28756;SDS011;44294;48.282;14.282;2022-08-19T02:09:51;19.00;;;3.70;;
28756;SDS011;44294;48.282;14.282;2022-08-19T02:12:39;5.03;;;2.70;;
28756;SDS011;44294;48.282;14.282;2022-08-19T02:15:26;6.60;;;3.20;;
28756;SDS011;44294;48.282;14.282;2022-08-19T02:18:13;8.53;;;3.30;;
28756;SDS011;44294;48.282;14.282;2022-08-19T02:21:01;6.90;;;3.10;;
28756;SDS011;44294;48.282;14.282;2022-08-19T02:23:48;7.20;;;3.20;;
28756;SDS011;44294;48.282;14.282;2022-08-19T02:26:36;4.77;;;2.77;;
28756;SDS011;44294;48.282;14.282;2022-08-19T02:29:23;7.03;;;3.13;;
28756;SDS011;44294;48.282;14.282;2022-08-19T02:32:11;6.20;;;3.30;;
28756;SDS011;44294;48.282;14.282;2022-08-19T02:34:58;6.90;;;3.20;;
28756;SDS011;44294;48.282;14.282;2022-08-19T02:37:45;6.47;;;3.60;;
28756;SDS011;44294;48.282;14.282;2022-08-19T02:40:51;8.27;;;3.60;;
28756;SDS011;44294;48.282;14.282;2022-08-19T02:43:39;7.00;;;3.60;;
28756;SDS011;44294;48.282;14.282;2022-08-19T02:46:27;10.40;;;3.40;;
28756;SDS011;44294;48.282;14.282;2022-08-19T02:49:15;8.27;;;3.60;;
28756;SDS011;44294;48.282;14.282;2022-08-19T02:52:03;7.00;;;3.30;;
28756;SDS011;44294;48.282;14.282;2022-08-19T02:54:50;6.13;;;3.50;;
28756;SDS011;44294;48.282;14.282;2022-08-19T02:57:37;9.20;;;3.90;;
28756;SDS011;44294;48.282;14.282;2022-08-19T03:00:25;7.37;;;3.33;;
28756;SDS011;44294;48.282;14.282;2022-08-19T03:03:12;5.97;;;3.40;;
28756;SDS011;44294;48.282;14.282;2022-08-19T03:06:08;5.30;;;3.30;;
28756;SDS011;44294;48.282;14.282;2022-08-19T03:08:51;9.50;;;3.33;;
28756;SDS011;44294;48.282;14.282;2022-08-19T03:11:39;7.17;;;3.80;;
28756;SDS011;44294;48.282;14.282;2022-08-19T03:14:27;7.87;;;3.50;;
28756;SDS011;44294;48.282;14.282;2022-08-19T03:17:16;8.50;;;3.63;;
28756;SDS011;44294;48.282;14.282;2022-08-19T03:20:04;5.07;;;3.30;;
28756;SDS011;44294;48.282;14.282;2022-08-19T03:22:51;6.53;;;3.10;;
28756;SDS011;44294;48.282;14.282;2022-08-19T03:25:39;4.43;;;2.90;;
28756;SDS011;44294;48.282;14.282;2022-08-19T03:28:29;5.57;;;3.23;;
28756;SDS011;44294;48.282;14.282;2022-08-19T03:31:18;7.00;;;3.70;;
28756;SDS011;44294;48.282;14.282;2022-08-19T03:34:05;6.57;;;3.40;;
28756;SDS011;44294;48.282;14.282;2022-08-19T03:36:53;4.73;;;3.30;;
28756;SDS011;44294;48.282;14.282;2022-08-19T03:39:41;6.20;;;3.50;;
28756;SDS011;44294;48.282;14.282;2022-08-19T03:42:28;7.57;;;3.30;;
28756;SDS011;44294;48.282;14.282;2022-08-19T03:45:16;7.77;;;3.40;;
28756;SDS011;44294;48.282;14.282;2022-08-19T03:48:03;5.27;;;3.47;;
28756;SDS011;44294;48.282;14.282;2022-08-19T03:50:51;5.33;;;3.63;;
28756;SDS011;44294;48.282;14.282;2022-08-19T03:53:38;4.73;;;3.30;;
28756;SDS011;44294;48.282;14.282;2022-08-19T03:56:26;8.87;;;3.80;;
28756;SDS011;44294;48.282;14.282;2022-08-19T03:59:19;6.87;;;3.70;;
28756;SDS011;44294;48.282;14.282;2022-08-19T04:02:07;4.83;;;3.70;;
28756;SDS011;44294;48.282;14.282;2022-08-19T04:04:55;4.97;;;3.30;;
28756;SDS011;44294;48.282;14.282;2022-08-19T04:07:42;6.90;;;3.67;;
28756;SDS011;44294;48.282;14.282;2022-08-19T04:10:29;6.97;;;4.00;;
28756;SDS011;44294;48.282;14.282;2022-08-19T04:13:17;7.07;;;3.80;;
28756;SDS011;44294;48.282;14.282;2022-08-19T04:16:05;4.90;;;3.60;;
28756;SDS011;44294;48.282;14.282;2022-08-19T04:18:52;7.57;;;4.10;;
28756;SDS011;44294;48.282;14.282;2022-08-19T04:21:40;7.47;;;4.27;;
28756;SDS011;44294;48.282;14.282;2022-08-19T04:24:27;8.57;;;3.80;;
28756;SDS011;44294;48.282;14.282;2022-08-19T04:27:15;8.87;;;4.60;;
28756;SDS011;44294;48.282;14.282;2022-08-19T04:30:03;6.80;;;4.63;;
28756;SDS011;44294;48.282;14.282;2022-08-19T04:32:50;6.70;;;4.20;;
28756;SDS011;44294;48.282;14.282;2022-08-19T04:35:39;7.53;;;4.00;;
28756;SDS011;44294;48.282;14.282;2022-08-19T04:38:26;9.93;;;4.37;;
28756;SDS011;44294;48.282;14.282;2022-08-19T04:41:14;8.53;;;4.50;;
28756;SDS011;44294;48.282;14.282;2022-08-19T04:44:19;10.57;;;4.50;;
28756;SDS011;44294;48.282;14.282;2022-08-19T04:47:07;9.90;;;4.50;;
28756;SDS011;44294;48.282;14.282;2022-08-19T04:49:54;9.20;;;4.87;;
28756;SDS011;44294;48.282;14.282;2022-08-19T04:52:42;8.33;;;5.57;;
28756;SDS011;44294;48.282;14.282;2022-08-19T04:55:29;6.93;;;5.17;;
28756;SDS011;44294;48.282;14.282;2022-08-19T04:58:16;7.43;;;4.77;;
28756;SDS011;44294;48.282;14.282;2022-08-19T05:01:04;9.90;;;5.90;;
28756;SDS011;44294;48.282;14.282;2022-08-19T05:03:51;9.97;;;6.10;;
28756;SDS011;44294;48.282;14.282;2022-08-19T05:06:39;8.50;;;6.30;;
28756;SDS011;44294;48.282;14.282;2022-08-19T05:09:26;8.83;;;6.50;;
28756;SDS011;44294;48.282;14.282;2022-08-19T05:12:14;10.93;;;6.60;;
28756;SDS011;44294;48.282;14.282;2022-08-19T05:15:02;8.77;;;6.50;;
28756;SDS011;44294;48.282;14.282;2022-08-19T05:17:50;10.33;;;7.17;;
28756;SDS011;44294;48.282;14.282;2022-08-19T05:20:55;13.93;;;8.53;;
28756;SDS011;44294;48.282;14.282;2022-08-19T05:24:01;13.60;;;9.10;;
28756;SDS011;44294;48.282;14.282;2022-08-19T05:26:49;16.33;;;9.10;;
28756;SDS011;44294;48.282;14.282;2022-08-19T05:29:36;13.57;;;9.07;;
28756;SDS011;44294;48.282;14.282;2022-08-19T05:32:24;13.67;;;9.70;;
28756;SDS011;44294;48.282;14.282;2022-08-19T05:35:11;12.03;;;9.40;;
28756;SDS011;44294;48.282;14.282;2022-08-19T05:37:59;12.20;;;9.47;;
28756;SDS011;44294;48.282;14.282;2022-08-19T05:40:46;13.17;;;9.70;;
28756;SDS011;44294;48.282;14.282;2022-08-19T05:43:34;11.77;;;9.60;;
28756;SDS011;44294;48.282;14.282;2022-08-19T05:46:21;11.93;;;9.80;;
28756;SDS011;44294;48.282;14.282;2022-08-19T05:49:09;15.53;;;10.07;;
28756;SDS011;44294;48.282;14.282;2022-08-19T05:51:56;15.00;;;10.23;;
28756;SDS011;44294;48.282;14.282;2022-08-19T05:54:45;13.27;;;9.63;;
28756;SDS011;44294;48.282;14.282;2022-08-19T05:57:34;13.27;;;10.13;;
28756;SDS011;44294;48.282;14.282;2022-08-19T06:00:21;13.63;;;10.00;;
28756;SDS011;44294;48.282;14.282;2022-08-19T06:03:09;17.70;;;11.13;;
28756;SDS011;44294;48.282;14.282;2022-08-19T06:05:57;14.33;;;10.50;;
28756;SDS011;44294;48.282;14.282;2022-08-19T06:08:45;13.30;;;10.27;;
28756;SDS011;44294;48.282;14.282;2022-08-19T06:11:38;13.63;;;10.53;;
28756;SDS011;44294;48.282;14.282;2022-08-19T06:14:28;17.43;;;11.63;;
28756;SDS011;44294;48.282;14.282;2022-08-19T06:17:15;15.90;;;11.33;;
28756;SDS011;44294;48.282;14.282;2022-08-19T06:20:06;19.70;;;13.70;;
28756;SDS011;44294;48.282;14.282;2022-08-19T06:22:52;18.77;;;12.60;;
28756;SDS011;44294;48.282;14.282;2022-08-19T06:25:40;18.33;;;12.30;;
28756;SDS011;44294;48.282;14.282;2022-08-19T06:28:27;15.73;;;11.57;;
28756;SDS011;44294;48.282;14.282;2022-08-19T06:31:25;16.93;;;12.83;;
28756;SDS011;44294;48.282;14.282;2022-08-19T06:34:13;19.00;;;13.20;;
28756;SDS011;44294;48.282;14.282;2022-08-19T06:37:01;15.80;;;11.53;;
28756;SDS011;44294;48.282;14.282;2022-08-19T06:39:49;19.00;;;12.33;;
28756;SDS011;44294;48.282;14.282;2022-08-19T06:42:37;16.97;;;12.17;;
28756;SDS011;44294;48.282;14.282;2022-08-19T06:45:27;19.10;;;11.97;;
28756;SDS011;44294;48.282;14.282;2022-08-19T06:48:14;17.07;;;11.10;;
28756;SDS011;44294;48.282;14.282;2022-08-19T06:51:01;14.63;;;9.90;;
28756;SDS011;44294;48.282;14.282;2022-08-19T06:53:51;16.97;;;11.27;;
28756;SDS011;44294;48.282;14.282;2022-08-19T06:56:38;14.53;;;10.53;;
28756;SDS011;44294;48.282;14.282;2022-08-19T06:59:26;20.63;;;12.23;;
28756;SDS011;44294;48.282;14.282;2022-08-19T07:02:13;18.37;;;10.40;;
28756;SDS011;44294;48.282;14.282;2022-08-19T07:05:01;17.43;;;10.80;;
28756;SDS011;44294;48.282;14.282;2022-08-19T07:07:50;14.30;;;10.20;;
28756;SDS011;44294;48.282;14.282;2022-08-19T07:10:37;18.97;;;12.33;;
28756;SDS011;44294;48.282;14.282;2022-08-19T07:13:26;16.60;;;10.93;;
28756;SDS011;44294;48.282;14.282;2022-08-19T07:16:14;14.60;;;10.83;;
28756;SDS011;44294;48.282;14.282;2022-08-19T07:19:02;15.70;;;11.30;;
28756;SDS011;44294;48.282;14.282;2022-08-19T07:21:50;17.90;;;11.33;;
28756;SDS011;44294;48.282;14.282;2022-08-19T07:24:39;17.97;;;11.83;;
28756;SDS011;44294;48.282;14.282;2022-08-19T07:27:27;17.63;;;11.87;;
28756;SDS011;44294;48.282;14.282;2022-08-19T07:30:14;17.33;;;11.67;;
28756;SDS011;44294;48.282;14.282;2022-08-19T07:33:01;20.83;;;13.10;;
28756;SDS011;44294;48.282;14.282;2022-08-19T07:35:49;17.57;;;12.07;;
28756;SDS011;44294;48.282;14.282;2022-08-19T07:38:37;18.60;;;12.23;;
28756;SDS011;44294;48.282;14.282;2022-08-19T07:41:26;21.40;;;14.63;;
28756;SDS011;44294;48.282;14.282;2022-08-19T07:44:14;19.77;;;14.17;;
28756;SDS011;44294;48.282;14.282;2022-08-19T07:47:02;20.43;;;13.90;;
28756;SDS011;44294;48.282;14.282;2022-08-19T07:49:50;17.73;;;13.13;;
28756;SDS011;44294;48.282;14.282;2022-08-19T07:52:37;19.37;;;12.77;;
28756;SDS011;44294;48.282;14.282;2022-08-19T07:55:25;21.43;;;14.87;;
28756;SDS011;44294;48.282;14.282;2022-08-19T07:58:14;20.63;;;14.13;;
28756;SDS011;44294;48.282;14.282;2022-08-19T08:01:02;21.00;;;14.63;;
28756;SDS011;44294;48.282;14.282;2022-08-19T08:03:51;20.63;;;15.83;;
28756;SDS011;44294;48.282;14.282;2022-08-19T08:06:57;19.00;;;15.10;;
28756;SDS011;44294;48.282;14.282;2022-08-19T08:10:03;21.57;;;17.17;;
28756;SDS011;44294;48.282;14.282;2022-08-19T08:12:51;21.43;;;15.97;;
28756;SDS011;44294;48.282;14.282;2022-08-19T08:15:38;21.73;;;16.93;;
28756;SDS011;44294;48.282;14.282;2022-08-19T08:18:26;21.17;;;15.07;;
28756;SDS011;44294;48.282;14.282;2022-08-19T08:21:13;20.27;;;15.70;;
28756;SDS011;44294;48.282;14.282;2022-08-19T08:24:01;20.77;;;16.03;;
28756;SDS011;44294;48.282;14.282;2022-08-19T08:26:48;22.03;;;16.00;;
28756;SDS011;44294;48.282;14.282;2022-08-19T08:29:35;20.03;;;15.00;;
28756;SDS011;44294;48.282;14.282;2022-08-19T08:32:23;22.77;;;15.80;;
28756;SDS011;44294;48.282;14.282;2022-08-19T08:35:13;21.40;;;16.17;;
28756;SDS011;44294;48.282;14.282;2022-08-19T08:38:00;22.97;;;17.10;;
28756;SDS011;44294;48.282;14.282;2022-08-19T08:40:52;20.90;;;16.13;;
28756;SDS011;44294;48.282;14.282;2022-08-19T08:43:44;23.13;;;16.20;;
28756;SDS011;44294;48.282;14.282;2022-08-19T08:46:38;22.27;;;15.83;;
28756;SDS011;44294;48.282;14.282;2022-08-19T08:49:45;23.77;;;15.93;;
28756;SDS011;44294;48.282;14.282;2022-08-19T08:52:22;25.20;;;17.07;;
28756;SDS011;44294;48.282;14.282;2022-08-19T08:55:11;23.30;;;16.83;;
28756;SDS011;44294;48.282;14.282;2022-08-19T08:58:00;24.60;;;17.80;;
28756;SDS011;44294;48.282;14.282;2022-08-19T09:00:48;23.70;;;17.07;;
28756;SDS011;44294;48.282;14.282;2022-08-19T09:03:36;22.30;;;16.37;;
28756;SDS011;44294;48.282;14.282;2022-08-19T09:06:27;20.90;;;15.83;;
28756;SDS011;44294;48.282;14.282;2022-08-19T09:09:17;26.03;;;17.13;;
28756;SDS011;44294;48.282;14.282;2022-08-19T09:15:00;23.23;;;17.77;;
28756;SDS011;44294;48.282;14.282;2022-08-19T09:17:48;22.30;;;17.27;;
28756;SDS011;44294;48.282;14.282;2022-08-19T09:20:36;25.00;;;17.80;;
28756;SDS011;44294;48.282;14.282;2022-08-19T09:23:23;22.10;;;16.80;;
28756;SDS011;44294;48.282;14.282;2022-08-19T09:26:12;23.80;;;16.47;;
28756;SDS011;44294;48.282;14.282;2022-08-19T09:28:59;20.33;;;15.10;;
28756;SDS011;44294;48.282;14.282;2022-08-19T09:31:49;22.63;;;15.57;;
28756;SDS011;44294;48.282;14.282;2022-08-19T09:34:36;20.17;;;15.67;;
28756;SDS011;44294;48.282;14.282;2022-08-19T09:37:24;23.03;;;17.97;;
28756;SDS011;44294;48.282;14.282;2022-08-19T09:40:12;23.50;;;17.87;;
28756;SDS011;44294;48.282;14.282;2022-08-19T09:42:59;18.57;;;14.67;;
28756;SDS011;44294;48.282;14.282;2022-08-19T09:45:48;21.80;;;16.97;;
28756;SDS011;44294;48.282;14.282;2022-08-19T09:48:36;22.53;;;17.43;;
28756;SDS011;44294;48.282;14.282;2022-08-19T09:51:24;19.17;;;15.53;;
28756;SDS011;44294;48.282;14.282;2022-08-19T09:54:14;22.40;;;17.90;;
28756;SDS011;44294;48.282;14.282;2022-08-19T09:57:01;18.90;;;15.20;;
28756;SDS011;44294;48.282;14.282;2022-08-19T09:59:49;20.60;;;15.60;;
28756;SDS011;44294;48.282;14.282;2022-08-19T10:02:36;20.30;;;15.87;;
28756;SDS011;44294;48.282;14.282;2022-08-19T10:05:23;18.40;;;14.53;;
28756;SDS011;44294;48.282;14.282;2022-08-19T10:08:30;22.47;;;15.80;;
28756;SDS011;44294;48.282;14.282;2022-08-19T10:11:19;17.67;;;14.33;;
28756;SDS011;44294;48.282;14.282;2022-08-19T10:14:07;17.73;;;14.00;;
28756;SDS011;44294;48.282;14.282;2022-08-19T10:16:54;18.80;;;14.00;;
28756;SDS011;44294;48.282;14.282;2022-08-19T10:19:42;18.33;;;13.83;;
28756;SDS011;44294;48.282;14.282;2022-08-19T10:22:30;14.37;;;11.73;;
28756;SDS011;44294;48.282;14.282;2022-08-19T10:25:17;17.37;;;13.20;;
28756;SDS011;44294;48.282;14.282;2022-08-19T10:28:04;16.77;;;12.97;;
28756;SDS011;44294;48.282;14.282;2022-08-19T10:30:55;16.53;;;14.00;;
28756;SDS011;44294;48.282;14.282;2022-08-19T10:33:42;18.93;;;14.77;;
28756;SDS011;44294;48.282;14.282;2022-08-19T10:36:32;17.67;;;13.67;;
28756;SDS011;44294;48.282;14.282;2022-08-19T10:39:19;16.67;;;13.87;;
28756;SDS011;44294;48.282;14.282;2022-08-19T10:42:06;15.50;;;11.83;;
28756;SDS011;44294;48.282;14.282;2022-08-19T10:44:56;13.57;;;11.60;;
28756;SDS011;44294;48.282;14.282;2022-08-19T10:47:43;16.87;;;13.17;;
28756;SDS011;44294;48.282;14.282;2022-08-19T10:50:30;17.13;;;12.83;;
28756;SDS011;44294;48.282;14.282;2022-08-19T10:53:36;16.90;;;13.30;;
28756;SDS011;44294;48.282;14.282;2022-08-19T10:56:23;14.77;;;12.47;;
28756;SDS011;44294;48.282;14.282;2022-08-19T10:59:29;14.40;;;11.67;;
28756;SDS011;44294;48.282;14.282;2022-08-19T11:02:16;16.57;;;14.20;;
28756;SDS011;44294;48.282;14.282;2022-08-19T11:05:04;19.70;;;15.73;;
28756;SDS011;44294;48.282;14.282;2022-08-19T11:07:53;18.43;;;14.80;;
28756;SDS011;44294;48.282;14.282;2022-08-19T11:10:43;16.90;;;12.97;;
28756;SDS011;44294;48.282;14.282;2022-08-19T11:13:31;14.83;;;12.63;;
28756;SDS011;44294;48.282;14.282;2022-08-19T11:16:21;17.20;;;13.43;;
28756;SDS011;44294;48.282;14.282;2022-08-19T11:19:09;17.47;;;14.47;;
28756;SDS011;44294;48.282;14.282;2022-08-19T11:21:57;17.87;;;15.00;;
28756;SDS011;44294;48.282;14.282;2022-08-19T11:24:46;17.87;;;13.97;;
28756;SDS011;44294;48.282;14.282;2022-08-19T11:27:36;18.23;;;14.60;;
28756;SDS011;44294;48.282;14.282;2022-08-19T11:30:22;17.03;;;14.20;;
28756;SDS011;44294;48.282;14.282;2022-08-19T11:33:10;16.73;;;14.00;;
28756;SDS011;44294;48.282;14.282;2022-08-19T11:35:58;15.20;;;13.40;;
28756;SDS011;44294;48.282;14.282;2022-08-19T11:38:47;16.37;;;11.93;;
28756;SDS011;44294;48.282;14.282;2022-08-19T11:41:35;13.50;;;11.20;;
28756;SDS011;44294;48.282;14.282;2022-08-19T11:44:23;14.67;;;10.73;;
28756;SDS011;44294;48.282;14.282;2022-08-19T11:47:10;11.37;;;10.17;;
28756;SDS011;44294;48.282;14.282;2022-08-19T11:49:58;15.27;;;12.23;;
28756;SDS011;44294;48.282;14.282;2022-08-19T11:52:45;13.73;;;11.43;;
28756;SDS011;44294;48.282;14.282;2022-08-19T11:55:36;18.23;;;14.03;;
28756;SDS011;44294;48.282;14.282;2022-08-19T11:58:22;10.20;;;9.10;;
28756;SDS011;44294;48.282;14.282;2022-08-19T12:01:13;17.07;;;13.00;;
28756;SDS011;44294;48.282;14.282;2022-08-19T12:04:02;12.07;;;9.20;;
28756;SDS011;44294;48.282;14.282;2022-08-19T12:06:51;16.50;;;13.00;;
28756;SDS011;44294;48.282;14.282;2022-08-19T12:09:39;15.63;;;12.30;;
28756;SDS011;44294;48.282;14.282;2022-08-19T12:12:26;16.03;;;13.40;;
28756;SDS011;44294;48.282;14.282;2022-08-19T12:15:14;17.90;;;13.20;;
28756;SDS011;44294;48.282;14.282;2022-08-19T12:18:02;17.13;;;12.87;;
28756;SDS011;44294;48.282;14.282;2022-08-19T12:20:52;14.57;;;10.20;;
28756;SDS011;44294;48.282;14.282;2022-08-19T12:23:38;14.77;;;11.97;;
28756;SDS011;44294;48.282;14.282;2022-08-19T12:26:27;16.37;;;12.20;;
28756;SDS011;44294;48.282;14.282;2022-08-19T12:29:14;15.47;;;12.57;;
28756;SDS011;44294;48.282;14.282;2022-08-19T12:32:02;14.67;;;12.10;;
28756;SDS011;44294;48.282;14.282;2022-08-19T12:34:50;16.90;;;11.97;;
28756;SDS011;44294;48.282;14.282;2022-08-19T12:37:37;15.73;;;12.80;;
28756;SDS011;44294;48.282;14.282;2022-08-19T12:40:25;15.40;;;12.73;;
28756;SDS011;44294;48.282;14.282;2022-08-19T12:43:13;15.87;;;12.67;;
28756;SDS011;44294;48.282;14.282;2022-08-19T12:46:02;15.03;;;13.40;;
28756;SDS011;44294;48.282;14.282;2022-08-19T12:48:50;14.17;;;11.87;;
28756;SDS011;44294;48.282;14.282;2022-08-19T12:51:38;16.57;;;13.97;;
28756;SDS011;44294;48.282;14.282;2022-08-19T12:54:26;15.07;;;12.17;;
28756;SDS011;44294;48.282;14.282;2022-08-19T12:57:13;17.40;;;12.83;;
28756;SDS011;44294;48.282;14.282;2022-08-19T13:02:55;16.70;;;13.03;;
28756;SDS011;44294;48.282;14.282;2022-08-19T13:05:43;14.30;;;11.50;;
28756;SDS011;44294;48.282;14.282;2022-08-19T13:08:30;15.23;;;11.50;;
28756;SDS011;44294;48.282;14.282;2022-08-19T13:11:19;16.20;;;11.47;;
28756;SDS011;44294;48.282;14.282;2022-08-19T13:14:06;12.23;;;10.83;;
28756;SDS011;44294;48.282;14.282;2022-08-19T13:16:54;15.77;;;10.90;;
28756;SDS011;44294;48.282;14.282;2022-08-19T13:19:41;13.73;;;10.70;;
28756;SDS011;44294;48.282;14.282;2022-08-19T13:22:28;14.07;;;10.10;;
28756;SDS011;44294;48.282;14.282;2022-08-19T13:25:16;9.43;;;8.17;;
28756;SDS011;44294;48.282;14.282;2022-08-19T13:28:05;11.60;;;9.17;;
28756;SDS011;44294;48.282;14.282;2022-08-19T13:30:52;14.53;;;12.00;;
28756;SDS011;44294;48.282;14.282;2022-08-19T13:33:58;14.87;;;11.37;;
28756;SDS011;44294;48.282;14.282;2022-08-19T13:36:45;17.77;;;11.50;;
28756;SDS011;44294;48.282;14.282;2022-08-19T13:39:33;14.07;;;10.77;;
28756;SDS011;44294;48.282;14.282;2022-08-19T13:42:21;13.77;;;10.50;;
28756;SDS011;44294;48.282;14.282;2022-08-19T13:45:08;11.43;;;9.83;;
28756;SDS011;44294;48.282;14.282;2022-08-19T13:47:57;10.93;;;9.23;;
28756;SDS011;44294;48.282;14.282;2022-08-19T13:50:44;11.00;;;9.27;;
28756;SDS011;44294;48.282;14.282;2022-08-19T13:53:33;10.83;;;8.90;;
28756;SDS011;44294;48.282;14.282;2022-08-19T13:56:21;13.27;;;9.13;;
28756;SDS011;44294;48.282;14.282;2022-08-19T13:59:08;10.37;;;9.27;;
28756;SDS011;44294;48.282;14.282;2022-08-19T14:01:59;12.10;;;9.40;;
28756;SDS011;44294;48.282;14.282;2022-08-19T14:04:46;12.47;;;9.40;;
28756;SDS011;44294;48.282;14.282;2022-08-19T14:07:34;14.23;;;11.30;;
28756;SDS011;44294;48.282;14.282;2022-08-19T14:10:22;15.27;;;10.07;;
28756;SDS011;44294;48.282;14.282;2022-08-19T14:13:10;11.40;;;9.50;;
28756;SDS011;44294;48.282;14.282;2022-08-19T14:15:57;10.20;;;9.10;;
28756;SDS011;44294;48.282;14.282;2022-08-19T14:18:44;12.87;;;8.77;;
28756;SDS011;44294;48.282;14.282;2022-08-19T14:21:32;14.37;;;9.27;;
28756;SDS011;44294;48.282;14.282;2022-08-19T14:24:20;12.13;;;9.60;;
28756;SDS011;44294;48.282;14.282;2022-08-19T14:27:08;10.13;;;8.90;;
28756;SDS011;44294;48.282;14.282;2022-08-19T14:29:55;12.20;;;8.90;;
28756;SDS011;44294;48.282;14.282;2022-08-19T14:32:42;11.30;;;8.80;;
28756;SDS011;44294;48.282;14.282;2022-08-19T14:35:30;10.47;;;8.60;;
28756;SDS011;44294;48.282;14.282;2022-08-19T14:38:20;12.23;;;8.90;;
28756;SDS011;44294;48.282;14.282;2022-08-19T14:41:08;10.03;;;8.13;;
28756;SDS011;44294;48.282;14.282;2022-08-19T14:43:56;11.30;;;8.17;;
28756;SDS011;44294;48.282;14.282;2022-08-19T14:46:43;9.23;;;8.20;;
28756;SDS011;44294;48.282;14.282;2022-08-19T14:49:31;11.43;;;9.03;;
28756;SDS011;44294;48.282;14.282;2022-08-19T14:52:18;10.23;;;8.23;;
28756;SDS011;44294;48.282;14.282;2022-08-19T14:55:06;14.00;;;9.40;;
28756;SDS011;44294;48.282;14.282;2022-08-19T14:57:53;11.40;;;8.50;;
28756;SDS011;44294;48.282;14.282;2022-08-19T15:00:41;11.83;;;8.40;;
28756;SDS011;44294;48.282;14.282;2022-08-19T15:03:29;10.63;;;8.30;;
28756;SDS011;44294;48.282;14.282;2022-08-19T15:06:17;10.87;;;8.07;;
28756;SDS011;44294;48.282;14.282;2022-08-19T15:09:05;11.70;;;8.30;;
28756;SDS011;44294;48.282;14.282;2022-08-19T15:11:52;9.37;;;8.37;;
28756;SDS011;44294;48.282;14.282;2022-08-19T15:14:40;10.50;;;8.47;;
28756;SDS011;44294;48.282;14.282;2022-08-19T15:17:28;9.47;;;7.80;;
28756;SDS011;44294;48.282;14.282;2022-08-19T15:20:17;11.53;;;8.13;;
28756;SDS011;44294;48.282;14.282;2022-08-19T15:23:05;9.50;;;7.30;;
28756;SDS011;44294;48.282;14.282;2022-08-19T15:25:53;10.07;;;6.53;;
28756;SDS011;44294;48.282;14.282;2022-08-19T15:28:41;13.10;;;3.47;;
28756;SDS011;44294;48.282;14.282;2022-08-19T15:31:28;8.43;;;2.90;;
28756;SDS011;44294;48.282;14.282;2022-08-19T15:34:18;6.67;;;2.50;;
28756;SDS011;44294;48.282;14.282;2022-08-19T15:37:05;10.47;;;2.80;;
28756;SDS011;44294;48.282;14.282;2022-08-19T15:39:53;4.90;;;2.53;;
28756;SDS011;44294;48.282;14.282;2022-08-19T15:42:40;10.77;;;2.80;;
28756;SDS011;44294;48.282;14.282;2022-08-19T15:45:28;5.00;;;2.40;;
28756;SDS011;44294;48.282;14.282;2022-08-19T15:48:18;5.27;;;2.47;;
28756;SDS011;44294;48.282;14.282;2022-08-19T15:51:05;8.40;;;2.37;;
28756;SDS011;44294;48.282;14.282;2022-08-19T15:53:52;10.47;;;2.90;;
28756;SDS011;44294;48.282;14.282;2022-08-19T15:56:40;7.30;;;2.40;;
28756;SDS011;44294;48.282;14.282;2022-08-19T15:59:46;6.33;;;2.27;;
28756;SDS011;44294;48.282;14.282;2022-08-19T16:02:51;5.10;;;2.00;;
28756;SDS011;44294;48.282;14.282;2022-08-19T16:05:57;5.60;;;1.97;;
28756;SDS011;44294;48.282;14.282;2022-08-19T16:09:02;5.70;;;2.40;;
28756;SDS011;44294;48.282;14.282;2022-08-19T16:11:50;8.23;;;2.30;;
28756;SDS011;44294;48.282;14.282;2022-08-19T16:14:37;6.97;;;2.13;;
28756;SDS011;44294;48.282;14.282;2022-08-19T16:17:25;7.07;;;2.27;;
28756;SDS011;44294;48.282;14.282;2022-08-19T16:20:12;4.27;;;2.17;;
28756;SDS011;44294;48.282;14.282;2022-08-19T16:23:02;6.80;;;2.30;;
28756;SDS011;44294;48.282;14.282;2022-08-19T16:25:50;10.43;;;2.60;;
28756;SDS011;44294;48.282;14.282;2022-08-19T16:28:37;6.23;;;2.40;;
28756;SDS011;44294;48.282;14.282;2022-08-19T16:31:25;4.33;;;2.03;;
28756;SDS011;44294;48.282;14.282;2022-08-19T16:34:13;10.33;;;2.40;;